createdAt,value
2023-03-21T00:00:12.082Z,94.85
2023-03-21T00:01:11.002Z,94.96
2023-03-21T00:02:10.991Z,94.85
2023-03-21T00:03:10.978Z,95.00
2023-03-21T00:04:11.050Z,94.90
2023-03-21T00:05:15.732Z,95.10
2023-03-21T00:06:10.933Z,95.21
2023-03-21T00:07:10.924Z,95.31
2023-03-21T00:08:10.897Z,95.31
2023-03-21T00:09:10.889Z,95.25
2023-03-21T00:10:16.663Z,95.25
2023-03-21T00:11:11.888Z,95.25
2023-03-21T00:12:10.854Z,95.25
2023-03-21T00:13:10.837Z,95.25
2023-03-21T00:14:10.831Z,95.15
2023-03-21T00:15:10.814Z,95.15
2023-03-21T00:16:12.774Z,95.04
2023-03-21T00:17:11.816Z,95.15
2023-03-21T00:18:10.769Z,95.15
2023-03-21T00:19:10.763Z,95.25
2023-03-21T00:20:10.745Z,95.25
2023-03-21T00:21:38.411Z,95.36
2023-03-21T00:22:11.744Z,95.36
2023-03-21T00:23:10.712Z,95.46
2023-03-21T00:24:10.698Z,95.67
2023-03-21T00:25:10.716Z,95.71
2023-03-21T00:26:10.726Z,95.50
2023-03-21T00:27:38.368Z,95.19
2023-03-21T00:28:11.668Z,95.09
2023-03-21T00:29:10.635Z,95.09
2023-03-21T00:30:10.620Z,95.09
2023-03-21T00:31:10.620Z,95.34
2023-03-21T00:32:10.594Z,95.34
2023-03-21T00:33:22.095Z,95.65
2023-03-21T00:35:47.997Z,95.86
2023-03-21T00:36:12.146Z,95.65
2023-03-21T00:37:10.524Z,95.54
2023-03-21T00:38:10.528Z,95.54
2023-03-21T00:39:10.495Z,95.70
2023-03-21T00:40:16.403Z,95.70
2023-03-21T00:41:21.327Z,95.80
2023-03-21T00:42:11.520Z,96.01
2023-03-21T00:43:10.454Z,96.21
2023-03-21T00:44:10.437Z,96.21
2023-03-21T00:45:10.421Z,96.31
2023-03-21T00:46:10.445Z,96.42
2023-03-21T00:47:10.481Z,96.62
2023-03-21T00:48:10.497Z,96.73
2023-03-21T00:49:10.370Z,96.73
2023-03-21T00:50:10.359Z,96.52
2023-03-21T00:51:10.349Z,96.52
2023-03-21T00:52:20.352Z,96.52
2023-03-21T00:53:11.359Z,96.21
2023-03-21T00:54:10.305Z,95.80
2023-03-21T00:55:10.299Z,95.70
2023-03-21T00:56:10.277Z,95.90
2023-03-21T00:57:10.265Z,95.90
2023-03-21T00:58:10.284Z,95.70
2023-03-21T00:59:10.242Z,95.70
2023-03-21T01:00:10.286Z,95.70
2023-03-21T01:01:10.261Z,95.70
2023-03-21T01:02:10.250Z,95.64
2023-03-21T01:03:23.195Z,95.64
2023-03-21T01:04:11.202Z,95.64
2023-03-21T01:05:10.163Z,95.95
2023-03-21T01:06:10.152Z,95.95
2023-03-21T01:07:10.147Z,96.05
2023-03-21T01:08:23.783Z,96.15
2023-03-21T01:09:11.161Z,95.95
2023-03-21T01:10:10.097Z,95.95
2023-03-21T01:11:10.084Z,95.64
2023-03-21T01:12:10.079Z,95.53
2023-03-21T01:13:10.057Z,95.64
2023-03-21T01:14:22.114Z,95.74
2023-03-21T01:15:11.075Z,95.74
2023-03-21T01:16:10.089Z,95.74
2023-03-21T01:17:10.022Z,95.89
2023-03-21T01:18:10.004Z,96.09
2023-03-21T01:19:22.121Z,96.20
2023-03-21T01:20:11.011Z,96.41
2023-03-21T01:21:09.967Z,96.72
2023-03-21T01:22:09.959Z,96.92
2023-03-21T01:23:09.943Z,97.17
2023-03-21T01:24:09.927Z,97.28
2023-03-21T01:25:22.014Z,97.38
2023-03-21T01:26:09.907Z,97.34
2023-03-21T01:27:09.888Z,97.24
2023-03-21T01:28:09.877Z,97.28
2023-03-21T01:29:09.875Z,97.24
2023-03-21T01:30:19.139Z,97.13
2023-03-21T01:31:10.934Z,97.13
2023-03-21T01:32:09.826Z,97.13
2023-03-21T01:33:09.822Z,97.13
2023-03-21T01:34:09.804Z,97.13
2023-03-21T01:35:09.796Z,97.03
2023-03-21T01:36:13.017Z,97.03
2023-03-21T01:37:09.760Z,97.03
2023-03-21T01:38:09.741Z,96.98
2023-03-21T01:39:09.739Z,97.09
2023-03-21T01:40:09.722Z,97.09
2023-03-21T01:41:19.245Z,96.88
2023-03-21T01:42:10.720Z,96.47
2023-03-21T01:43:09.682Z,96.36
2023-03-21T01:44:09.672Z,96.36
2023-03-21T01:45:09.650Z,96.36
2023-03-21T01:46:09.791Z,96.47
2023-03-21T01:47:11.880Z,96.61
2023-03-21T01:48:09.780Z,96.82
2023-03-21T01:49:09.661Z,97.03
2023-03-21T01:50:09.684Z,97.29
2023-03-21T01:51:09.574Z,97.39
2023-03-21T01:52:15.338Z,97.50
2023-03-21T01:53:09.554Z,97.39
2023-03-21T01:54:09.542Z,97.29
2023-03-21T01:55:09.521Z,97.09
2023-03-21T01:56:09.517Z,97.29
2023-03-21T01:57:09.502Z,97.50
2023-03-21T01:58:09.587Z,97.50
2023-03-21T01:59:09.469Z,97.29
2023-03-21T02:00:09.467Z,96.98
2023-03-21T02:01:09.493Z,96.98
2023-03-21T02:02:09.465Z,96.98
2023-03-21T02:03:15.331Z,97.09
2023-03-21T02:04:10.508Z,97.19
2023-03-21T02:05:09.406Z,97.14
2023-03-21T02:06:09.401Z,97.14
2023-03-21T02:07:09.375Z,97.14
2023-03-21T02:08:09.364Z,97.14
2023-03-21T02:09:09.348Z,97.04
2023-03-21T02:10:09.330Z,96.83
2023-03-21T02:11:09.340Z,96.83
2023-03-21T02:12:09.307Z,96.73
2023-03-21T02:13:09.345Z,96.42
2023-03-21T02:14:10.105Z,96.15
2023-03-21T02:15:09.275Z,95.95
2023-03-21T02:16:09.277Z,95.95
2023-03-21T02:17:09.255Z,96.09
2023-03-21T02:18:09.252Z,96.20
2023-03-21T02:19:09.217Z,96.41
2023-03-21T02:20:09.222Z,96.41
2023-03-21T02:21:09.193Z,96.55
2023-03-21T02:22:09.187Z,96.76
2023-03-21T02:23:09.166Z,96.92
2023-03-21T02:24:09.160Z,97.13
2023-03-21T02:25:21.224Z,97.24
2023-03-21T02:26:10.160Z,97.13
2023-03-21T02:27:09.123Z,97.34
2023-03-21T02:28:09.110Z,97.44
2023-03-21T02:29:09.126Z,97.44
2023-03-21T02:30:09.922Z,97.34
2023-03-21T02:31:09.093Z,97.55
2023-03-21T02:32:18.222Z,97.86
2023-03-21T02:33:10.077Z,97.96
2023-03-21T02:34:09.050Z,98.07
2023-03-21T02:35:09.021Z,98.17
2023-03-21T02:36:14.178Z,97.86
2023-03-21T02:37:08.994Z,97.44
2023-03-21T02:38:08.979Z,97.13
2023-03-21T02:39:08.979Z,97.03
2023-03-21T02:40:08.950Z,97.03
2023-03-21T02:41:17.989Z,97.03
2023-03-21T02:42:10.002Z,97.03
2023-03-21T02:43:16.985Z,97.19
2023-03-21T02:44:09.945Z,97.09
2023-03-21T02:45:08.894Z,97.09
2023-03-21T02:46:08.959Z,96.98
2023-03-21T02:47:08.917Z,96.82
2023-03-21T02:48:14.557Z,96.72
2023-03-21T02:49:09.923Z,96.82
2023-03-21T02:50:08.863Z,96.82
2023-03-21T02:51:08.813Z,96.82
2023-03-21T02:52:17.001Z,97.03
2023-03-21T02:53:09.819Z,97.13
2023-03-21T02:54:47.299Z,97.34
2023-03-21T02:55:09.797Z,97.55
2023-03-21T02:56:08.758Z,97.44
2023-03-21T02:57:08.742Z,97.24
2023-03-21T02:58:13.185Z,97.03
2023-03-21T02:59:08.752Z,96.97
2023-03-21T03:00:16.274Z,97.13
2023-03-21T03:01:09.801Z,97.24
2023-03-21T03:02:08.685Z,97.34
2023-03-21T03:03:11.481Z,97.44
2023-03-21T03:04:08.714Z,97.34
2023-03-21T03:05:18.038Z,97.24
2023-03-21T03:06:08.647Z,97.24
2023-03-21T03:07:08.619Z,97.34
2023-03-21T03:08:08.609Z,97.44
2023-03-21T03:09:08.588Z,97.34
2023-03-21T03:10:08.574Z,97.13
2023-03-21T03:11:08.565Z,97.13
2023-03-21T03:12:08.556Z,97.24
2023-03-21T03:13:08.545Z,97.44
2023-03-21T03:14:32.182Z,97.44
2023-03-21T03:15:09.544Z,97.55
2023-03-21T03:16:08.558Z,97.71
2023-03-21T03:17:08.497Z,97.71
2023-03-21T03:18:08.473Z,97.71
2023-03-21T03:19:08.464Z,97.91
2023-03-21T03:20:16.234Z,97.91
2023-03-21T03:21:09.461Z,97.81
2023-03-21T03:22:08.446Z,97.60
2023-03-21T03:23:08.416Z,97.55
2023-03-21T03:24:08.400Z,97.50
2023-03-21T03:25:19.770Z,97.55
2023-03-21T03:26:09.405Z,97.55
2023-03-21T03:27:08.364Z,97.55
2023-03-21T03:28:08.345Z,97.60
2023-03-21T03:29:08.334Z,97.60
2023-03-21T03:30:08.330Z,97.71
2023-03-21T03:31:10.102Z,97.71
2023-03-21T03:32:08.361Z,97.39
2023-03-21T03:33:08.285Z,96.98
2023-03-21T03:34:08.274Z,96.88
2023-03-21T03:35:08.258Z,96.88
2023-03-21T03:36:10.896Z,96.88
2023-03-21T03:37:08.223Z,96.98
2023-03-21T03:38:08.248Z,96.92
2023-03-21T03:39:08.206Z,96.92
2023-03-21T03:40:08.204Z,97.03
2023-03-21T03:41:08.171Z,97.09
2023-03-21T03:42:21.781Z,97.29
2023-03-21T03:43:09.174Z,97.29
2023-03-21T03:44:08.133Z,97.29
2023-03-21T03:45:08.131Z,97.29
2023-03-21T03:46:08.173Z,97.34
2023-03-21T03:47:08.099Z,97.34
2023-03-21T03:48:08.146Z,97.39
2023-03-21T03:49:08.072Z,97.50
2023-03-21T03:50:08.067Z,97.60
2023-03-21T03:51:08.042Z,97.71
2023-03-21T03:52:08.043Z,97.81
2023-03-21T03:53:17.697Z,97.91
2023-03-21T03:54:09.071Z,97.91
2023-03-21T03:55:07.996Z,97.81
2023-03-21T03:56:07.985Z,97.81
2023-03-21T03:57:07.979Z,97.91
2023-03-21T03:58:19.672Z,97.91
2023-03-21T03:59:08.989Z,98.02
2023-03-21T04:00:07.928Z,98.12
2023-03-21T04:01:07.925Z,98.12
2023-03-21T04:02:08.030Z,98.12
2023-03-21T04:03:08.114Z,98.12
2023-03-21T04:04:13.376Z,98.02
2023-03-21T04:05:07.869Z,98.02
2023-03-21T04:06:07.852Z,98.02
2023-03-21T04:07:07.860Z,98.02
2023-03-21T04:08:07.830Z,98.12
2023-03-21T04:09:18.538Z,98.08
2023-03-21T04:10:08.865Z,98.08
2023-03-21T04:11:07.790Z,97.97
2023-03-21T04:12:07.788Z,98.08
2023-03-21T04:13:07.773Z,97.77
2023-03-21T04:14:07.767Z,97.66
2023-03-21T04:15:10.847Z,97.45
2023-03-21T04:16:07.775Z,97.29
2023-03-21T04:17:07.719Z,97.29
2023-03-21T04:18:07.702Z,97.39
2023-03-21T04:19:07.695Z,97.39
2023-03-21T04:20:12.136Z,97.50
2023-03-21T04:21:08.693Z,97.39
2023-03-21T04:22:07.686Z,97.29
2023-03-21T04:23:07.641Z,97.29
2023-03-21T04:24:07.640Z,97.50
2023-03-21T04:25:07.615Z,97.60
2023-03-21T04:26:07.618Z,97.66
2023-03-21T04:27:07.580Z,97.56
2023-03-21T04:28:07.575Z,97.45
2023-03-21T04:29:07.578Z,97.35
2023-03-21T04:30:07.557Z,97.25
2023-03-21T04:31:19.130Z,97.14
2023-03-21T04:32:08.592Z,97.04
2023-03-21T04:33:07.516Z,96.78
2023-03-21T04:34:07.499Z,96.47
2023-03-21T04:35:07.485Z,96.47
2023-03-21T04:36:07.497Z,96.36
2023-03-21T04:37:07.459Z,96.47
2023-03-21T04:38:07.448Z,96.67
2023-03-21T04:39:07.428Z,96.67
2023-03-21T04:40:07.435Z,96.67
2023-03-21T04:41:07.416Z,96.67
2023-03-21T04:42:07.410Z,96.82
2023-03-21T04:43:07.381Z,96.98
2023-03-21T04:44:07.363Z,97.09
2023-03-21T04:45:07.352Z,97.29
2023-03-21T04:46:07.431Z,97.39
2023-03-21T04:47:07.332Z,97.29
2023-03-21T04:48:07.597Z,97.29
2023-03-21T04:49:07.309Z,97.29
2023-03-21T04:50:07.290Z,97.19
2023-03-21T04:51:07.287Z,97.19
2023-03-21T04:52:07.257Z,96.98
2023-03-21T04:53:07.244Z,96.88
2023-03-21T04:54:44.457Z,96.67
2023-03-21T04:55:44.441Z,96.67
2023-03-21T04:56:44.432Z,96.78
2023-03-21T04:57:44.444Z,96.82
2023-03-21T04:58:44.395Z,97.03
2023-03-21T04:59:44.383Z,97.03
2023-03-21T05:00:44.406Z,97.13
2023-03-21T05:01:44.363Z,97.34
2023-03-21T05:02:44.347Z,97.39
2023-03-21T05:03:44.363Z,97.44
2023-03-21T05:04:44.338Z,97.34
2023-03-21T05:05:44.317Z,97.34
2023-03-21T05:06:44.297Z,97.24
2023-03-21T05:07:44.289Z,97.24
2023-03-21T05:08:44.266Z,97.34
2023-03-21T05:09:44.284Z,97.34
2023-03-21T05:10:44.247Z,97.44
2023-03-21T05:11:44.243Z,97.55
2023-03-21T05:12:44.224Z,97.55
2023-03-21T05:13:44.226Z,97.65
2023-03-21T05:14:44.190Z,97.75
2023-03-21T05:15:44.188Z,97.86
2023-03-21T05:16:44.201Z,97.96
2023-03-21T05:17:44.156Z,98.07
2023-03-21T05:18:44.137Z,98.07
2023-03-21T05:19:44.145Z,98.17
2023-03-21T05:20:44.121Z,98.17
2023-03-21T05:21:44.114Z,98.27
2023-03-21T05:22:44.094Z,98.27
2023-03-21T05:23:44.080Z,98.38
2023-03-21T05:24:44.075Z,98.22
2023-03-21T05:25:44.060Z,98.12
2023-03-21T05:26:44.053Z,97.75
2023-03-21T05:27:44.027Z,97.55
2023-03-21T05:28:44.020Z,97.55
2023-03-21T05:29:44.028Z,97.65
2023-03-21T05:30:44.001Z,97.86
2023-03-21T05:31:43.984Z,97.96
2023-03-21T05:32:43.960Z,97.96
2023-03-21T05:33:43.946Z,97.96
2023-03-21T05:34:43.949Z,98.07
2023-03-21T05:35:43.962Z,98.17
2023-03-21T05:36:43.931Z,98.17
2023-03-21T05:37:43.905Z,98.22
2023-03-21T05:38:43.894Z,98.22
2023-03-21T05:39:43.872Z,98.02
2023-03-21T05:40:43.865Z,97.91
2023-03-21T05:41:43.844Z,97.91
2023-03-21T05:42:43.833Z,97.81
2023-03-21T05:43:43.826Z,97.71
2023-03-21T05:44:43.805Z,97.71
2023-03-21T05:45:43.821Z,97.60
2023-03-21T05:46:43.781Z,97.29
2023-03-21T05:47:43.840Z,97.09
2023-03-21T05:48:43.779Z,96.98
2023-03-21T05:49:43.754Z,96.98
2023-03-21T05:50:43.742Z,96.73
2023-03-21T05:51:43.721Z,96.73
2023-03-21T05:52:43.704Z,96.62
2023-03-21T05:53:43.691Z,96.31
2023-03-21T05:54:43.684Z,95.64
2023-03-21T05:55:43.678Z,95.22
2023-03-21T05:56:43.667Z,95.22
2023-03-21T05:57:43.638Z,95.43
2023-03-21T05:58:43.625Z,95.53
2023-03-21T05:59:43.613Z,95.53
2023-03-21T06:00:43.610Z,95.53
2023-03-21T06:01:43.622Z,95.32
2023-03-21T06:02:43.640Z,95.32
2023-03-21T06:03:43.577Z,95.32
2023-03-21T06:04:43.560Z,95.28
2023-03-21T06:05:43.549Z,95.18
2023-03-21T06:06:43.532Z,94.76
2023-03-21T06:07:43.515Z,94.66
2023-03-21T06:08:43.508Z,94.45
2023-03-21T06:09:43.496Z,94.35
2023-03-21T06:10:43.481Z,94.45
2023-03-21T06:11:43.467Z,94.56
2023-03-21T06:12:43.449Z,94.66
2023-03-21T06:13:43.444Z,94.66
2023-03-21T06:14:43.425Z,94.66
2023-03-21T06:15:43.497Z,94.66
2023-03-21T06:16:43.404Z,94.51
2023-03-21T06:17:43.435Z,94.51
2023-03-21T06:18:43.379Z,94.20
2023-03-21T06:19:43.381Z,93.95
2023-03-21T06:20:43.358Z,93.74
2023-03-21T06:21:43.344Z,93.43
2023-03-21T06:22:43.334Z,93.12
2023-03-21T06:23:43.313Z,92.63
2023-03-21T06:24:43.294Z,91.50
2023-03-21T06:25:43.282Z,89.98
2023-03-21T06:26:43.274Z,87.66
2023-03-21T06:27:43.259Z,86.00
2023-03-21T06:28:43.252Z,83.76
2023-03-21T06:29:43.236Z,80.70
2023-03-21T06:30:43.220Z,78.85
2023-03-21T06:31:43.253Z,76.92
2023-03-21T06:32:43.206Z,75.62
2023-03-21T06:33:43.202Z,73.44
2023-03-21T06:34:43.166Z,71.94
2023-03-21T06:35:43.223Z,70.54
2023-03-21T06:36:43.140Z,69.01
2023-03-21T06:37:43.137Z,68.90
2023-03-21T06:38:43.121Z,68.97
2023-03-21T06:39:43.111Z,67.04
2023-03-21T06:40:43.095Z,64.90
2023-03-21T06:41:43.080Z,63.22
2023-03-21T06:42:43.072Z,62.37
2023-03-21T06:43:43.058Z,61.22
2023-03-21T06:44:43.054Z,61.02
2023-03-21T06:45:43.022Z,61.66
2023-03-21T06:46:43.094Z,61.36
2023-03-21T06:47:43.054Z,61.66
2023-03-21T06:48:42.994Z,61.56
2023-03-21T06:49:43.020Z,61.61
2023-03-21T06:50:42.968Z,62.54
2023-03-21T06:51:42.952Z,62.27
2023-03-21T06:52:42.952Z,61.33
2023-03-21T06:53:42.957Z,61.02
2023-03-21T06:54:42.921Z,60.49
2023-03-21T06:55:42.898Z,59.72
2023-03-21T06:56:42.887Z,58.65
2023-03-21T06:57:42.879Z,57.84
2023-03-21T06:58:42.858Z,57.73
2023-03-21T06:59:42.844Z,56.67
2023-03-21T07:00:42.882Z,56.51
2023-03-21T07:01:42.896Z,55.11
2023-03-21T07:02:42.865Z,53.88
2023-03-21T07:03:42.787Z,53.17
2023-03-21T07:04:42.791Z,53.45
2023-03-21T07:05:42.804Z,52.34
2023-03-21T07:06:42.758Z,52.72
2023-03-21T07:07:42.760Z,53.07
2023-03-21T07:08:42.744Z,55.25
2023-03-21T07:09:42.728Z,58.12
2023-03-21T07:10:44.965Z,60.82
2023-03-21T07:11:42.695Z,61.99
2023-03-21T07:12:42.694Z,62.74
2023-03-21T07:13:42.672Z,63.99
2023-03-21T07:14:42.653Z,64.63
2023-03-21T07:15:42.644Z,66.02
2023-03-21T07:16:42.670Z,67.27
2023-03-21T07:17:42.624Z,68.05
2023-03-21T07:18:42.623Z,69.01
2023-03-21T07:19:44.735Z,69.62
2023-03-21T07:20:42.584Z,70.16
2023-03-21T07:21:42.589Z,70.06
2023-03-21T07:22:42.546Z,70.16
2023-03-21T07:23:42.554Z,70.94
2023-03-21T07:24:42.534Z,71.29
2023-03-21T07:25:42.547Z,70.67
2023-03-21T07:26:42.517Z,70.88
2023-03-21T07:27:42.492Z,71.19
2023-03-21T07:28:42.481Z,70.64
2023-03-21T07:29:42.476Z,68.94
2023-03-21T07:30:42.484Z,68.09
2023-03-21T07:31:42.629Z,68.37
2023-03-21T07:32:42.431Z,66.54
2023-03-21T07:33:42.430Z,65.30
2023-03-21T07:34:42.408Z,65.39
2023-03-21T07:35:42.446Z,65.19
2023-03-21T07:36:42.387Z,64.73
2023-03-21T07:37:42.385Z,64.36
2023-03-21T07:38:42.353Z,62.34
2023-03-21T07:39:42.336Z,59.95
2023-03-21T07:40:42.327Z,58.51
2023-03-21T07:41:42.321Z,58.23
2023-03-21T07:42:42.305Z,58.94
2023-03-21T07:43:42.303Z,58.81
2023-03-21T07:44:42.294Z,57.57
2023-03-21T07:45:42.354Z,57.34
2023-03-21T07:46:42.252Z,56.33
2023-03-21T07:47:42.280Z,56.96
2023-03-21T07:48:42.240Z,57.80
2023-03-21T07:49:42.221Z,58.47
2023-03-21T07:50:42.203Z,59.91
2023-03-21T07:51:42.195Z,60.21
2023-03-21T07:52:42.182Z,60.04
2023-03-21T07:53:42.207Z,61.39
2023-03-21T07:54:42.143Z,62.46
2023-03-21T07:55:42.143Z,64.73
2023-03-21T07:56:42.117Z,64.65
2023-03-21T07:57:42.150Z,63.77
2023-03-21T07:58:42.104Z,64.99
2023-03-21T07:59:42.080Z,65.09
2023-03-21T08:00:42.083Z,64.79
2023-03-21T08:01:42.052Z,64.99
2023-03-21T08:02:42.065Z,65.02
2023-03-21T08:03:42.121Z,65.83
2023-03-21T08:04:42.029Z,65.12
2023-03-21T08:05:42.357Z,67.02
2023-03-21T08:06:42.021Z,66.18
2023-03-21T08:07:41.982Z,65.88
2023-03-21T08:08:41.976Z,65.54
2023-03-21T08:09:41.983Z,65.61
2023-03-21T08:10:41.964Z,63.75
2023-03-21T08:11:41.923Z,64.33
2023-03-21T08:12:41.908Z,63.52
2023-03-21T08:13:41.912Z,61.87
2023-03-21T08:14:41.882Z,61.53
2023-03-21T08:15:41.877Z,61.30
2023-03-21T08:16:41.915Z,61.10
2023-03-21T08:17:41.855Z,59.34
2023-03-21T08:18:41.849Z,58.36
2023-03-21T08:19:41.839Z,56.58
2023-03-21T08:20:41.835Z,55.01
2023-03-21T08:21:41.799Z,53.88
2023-03-21T08:22:41.781Z,54.05
2023-03-21T08:23:41.774Z,55.01
2023-03-21T08:24:41.772Z,54.41
2023-03-21T08:25:41.776Z,55.11
2023-03-21T08:26:41.741Z,55.82
2023-03-21T08:27:41.720Z,55.44
2023-03-21T08:28:41.721Z,54.08
2023-03-21T08:29:41.693Z,56.38
2023-03-21T08:30:41.710Z,58.31
2023-03-21T08:31:41.676Z,58.00
2023-03-21T08:32:41.657Z,57.24
2023-03-21T08:33:41.643Z,59.41
2023-03-21T08:34:41.632Z,60.44
2023-03-21T08:35:41.919Z,59.43
2023-03-21T08:36:41.604Z,59.86
2023-03-21T08:37:41.615Z,59.86
2023-03-21T08:38:41.578Z,59.39
2023-03-21T08:39:41.668Z,61.82
2023-03-21T08:40:41.556Z,61.62
2023-03-21T08:41:41.572Z,61.17
2023-03-21T08:42:41.546Z,63.46
2023-03-21T08:43:41.514Z,64.25
2023-03-21T08:44:41.502Z,65.16
2023-03-21T08:45:41.486Z,62.01
2023-03-21T08:46:41.535Z,63.60
2023-03-21T08:47:41.571Z,61.44
2023-03-21T08:48:41.462Z,62.36
2023-03-21T08:49:41.437Z,61.49
2023-03-21T08:50:41.430Z,61.49
2023-03-21T08:51:41.418Z,60.04
2023-03-21T08:52:41.403Z,59.74
2023-03-21T08:53:41.393Z,59.16
2023-03-21T08:54:41.378Z,60.68
2023-03-21T08:55:41.369Z,60.98
2023-03-21T08:56:41.350Z,60.37
2023-03-21T08:57:41.365Z,59.84
2023-03-21T08:58:41.320Z,58.59
2023-03-21T08:59:41.312Z,61.23
2023-03-21T09:00:41.314Z,60.69
2023-03-21T09:01:41.339Z,59.25
2023-03-21T09:02:41.276Z,59.12
2023-03-21T09:03:41.259Z,59.22
2023-03-21T09:04:41.332Z,58.38
2023-03-21T09:05:41.235Z,57.40
2023-03-21T09:06:41.247Z,57.02
2023-03-21T09:07:41.234Z,56.97
2023-03-21T09:08:41.196Z,57.68
2023-03-21T09:09:41.181Z,57.97
2023-03-21T09:10:41.172Z,59.84
2023-03-21T09:11:41.158Z,61.98
2023-03-21T09:12:41.145Z,61.55
2023-03-21T09:13:41.175Z,61.65
2023-03-21T09:14:41.133Z,61.75
2023-03-21T09:15:41.293Z,60.43
2023-03-21T09:16:41.114Z,61.85
2023-03-21T09:17:41.076Z,61.68
2023-03-21T09:18:41.077Z,60.97
2023-03-21T09:19:41.057Z,61.71
2023-03-21T09:20:41.052Z,63.46
2023-03-21T09:21:41.024Z,62.96
2023-03-21T09:22:42.765Z,63.36
2023-03-21T09:23:41.025Z,63.36
2023-03-21T09:24:40.998Z,63.36
2023-03-21T09:25:41.012Z,61.94
2023-03-21T09:26:40.974Z,62.48
2023-03-21T09:27:41.176Z,63.06
2023-03-21T09:28:40.967Z,64.11
2023-03-21T09:29:40.956Z,62.88
2023-03-21T09:30:40.931Z,64.11
2023-03-21T09:31:40.978Z,62.75
2023-03-21T09:32:40.888Z,63.46
2023-03-21T09:33:40.884Z,62.96
2023-03-21T09:34:40.880Z,63.02
2023-03-21T09:35:41.448Z,61.74
2023-03-21T09:36:40.844Z,61.97
2023-03-21T09:37:40.837Z,62.68
2023-03-21T09:38:40.812Z,62.48
2023-03-21T09:39:40.805Z,63.09
2023-03-21T09:40:40.800Z,63.59
2023-03-21T09:41:40.780Z,62.96
2023-03-21T09:42:40.804Z,63.33
2023-03-21T09:43:40.754Z,62.59
2023-03-21T09:44:40.753Z,61.78
2023-03-21T09:45:40.766Z,61.33
2023-03-21T09:46:40.736Z,61.87
2023-03-21T09:47:40.743Z,64.23
2023-03-21T09:48:50.633Z,63.86
2023-03-21T09:49:41.720Z,63.56
2023-03-21T09:50:40.660Z,64.60
2023-03-21T09:51:40.661Z,64.20
2023-03-21T09:52:40.640Z,64.84
2023-03-21T09:53:40.635Z,66.03
2023-03-21T09:54:40.643Z,64.60
2023-03-21T09:55:40.935Z,64.12
2023-03-21T09:56:40.682Z,64.73
2023-03-21T09:57:40.577Z,65.65
2023-03-21T09:58:40.550Z,66.39
2023-03-21T09:59:40.556Z,66.88
2023-03-21T10:00:40.619Z,67.18
2023-03-21T10:01:40.547Z,66.23
2023-03-21T10:02:40.514Z,65.92
2023-03-21T10:03:40.496Z,65.22
2023-03-21T10:04:40.513Z,65.92
2023-03-21T10:05:40.903Z,66.64
2023-03-21T10:06:40.822Z,66.00
2023-03-21T10:07:40.438Z,65.39
2023-03-21T10:08:40.423Z,65.59
2023-03-21T10:09:40.421Z,65.28
2023-03-21T10:10:40.710Z,64.98
2023-03-21T10:11:40.596Z,65.49
2023-03-21T10:12:40.381Z,65.59
2023-03-21T10:13:40.373Z,65.36
2023-03-21T10:14:40.364Z,65.77
2023-03-21T10:15:40.716Z,63.76
2023-03-21T10:16:40.380Z,65.66
2023-03-21T10:17:40.340Z,65.36
2023-03-21T10:18:40.310Z,64.61
2023-03-21T10:19:40.291Z,64.64
2023-03-21T10:20:40.556Z,65.56
2023-03-21T10:22:40.249Z,65.05
2023-03-21T10:23:40.238Z,66.17
2023-03-21T10:24:40.228Z,64.92
2023-03-21T10:25:40.620Z,64.31
2023-03-21T10:26:40.198Z,63.39
2023-03-21T10:27:40.180Z,63.73
2023-03-21T10:28:52.291Z,64.51
2023-03-21T10:29:41.298Z,64.44
2023-03-21T10:30:40.143Z,65.66
2023-03-21T10:31:40.192Z,64.75
2023-03-21T10:32:40.165Z,66.96
2023-03-21T10:33:40.140Z,65.53
2023-03-21T10:34:40.121Z,66.04
2023-03-21T10:35:40.628Z,65.09
2023-03-21T10:36:40.072Z,66.21
2023-03-21T10:37:40.091Z,65.50
2023-03-21T10:38:40.042Z,64.11
2023-03-21T10:39:40.051Z,65.73
2023-03-21T10:40:40.026Z,64.41
2023-03-21T10:41:40.002Z,64.03
2023-03-21T10:42:39.995Z,64.37
2023-03-21T10:43:40.009Z,66.20
2023-03-21T10:44:39.969Z,65.56
2023-03-21T10:45:40.471Z,66.17
2023-03-21T10:46:40.177Z,65.39
2023-03-21T10:47:40.328Z,67.22
2023-03-21T10:48:40.074Z,65.80
2023-03-21T10:50:05.699Z,67.29
2023-03-21T10:50:40.975Z,66.47
2023-03-21T10:51:39.886Z,66.58
2023-03-21T10:52:39.886Z,67.05
2023-03-21T10:53:39.885Z,67.05
2023-03-21T10:54:39.838Z,66.14
2023-03-21T10:55:40.246Z,66.75
2023-03-21T10:56:39.818Z,66.04
2023-03-21T10:57:39.813Z,66.04
2023-03-21T10:58:39.805Z,66.14
2023-03-21T10:59:39.783Z,65.94
2023-03-21T11:00:39.765Z,66.24
2023-03-21T11:01:39.886Z,67.77
2023-03-21T11:02:39.775Z,65.63
2023-03-21T11:03:39.734Z,65.73
2023-03-21T11:04:39.731Z,65.77
2023-03-21T11:05:40.013Z,66.17
2023-03-21T11:06:39.682Z,66.61
2023-03-21T11:07:39.671Z,66.20
2023-03-21T11:08:39.678Z,66.61
2023-03-21T11:09:39.646Z,66.61
2023-03-21T11:10:39.632Z,66.61
2023-03-21T11:11:39.638Z,66.61
2023-03-21T11:12:39.630Z,66.00
2023-03-21T11:13:39.617Z,67.12
2023-03-21T11:14:39.599Z,67.29
2023-03-21T11:15:39.966Z,66.10
2023-03-21T11:16:40.834Z,66.88
2023-03-21T11:17:39.563Z,66.20
2023-03-21T11:18:39.532Z,66.58
2023-03-21T11:19:39.527Z,65.69
2023-03-21T11:20:39.517Z,66.07
2023-03-21T11:21:39.523Z,66.99
2023-03-21T11:22:39.485Z,66.88
2023-03-21T11:23:39.485Z,65.53
2023-03-21T11:24:39.467Z,64.84
2023-03-21T11:25:39.833Z,64.61
2023-03-21T11:26:39.449Z,63.62
2023-03-21T11:27:39.424Z,63.32
2023-03-21T11:28:39.416Z,63.93
2023-03-21T11:29:39.403Z,65.86
2023-03-21T11:30:39.490Z,64.20
2023-03-21T11:31:39.373Z,64.00
2023-03-21T11:32:39.366Z,64.61
2023-03-21T11:33:39.366Z,63.53
2023-03-21T11:34:39.357Z,64.44
2023-03-21T11:35:39.599Z,65.63
2023-03-21T11:36:39.343Z,64.00
2023-03-21T11:37:39.337Z,64.00
2023-03-21T11:38:39.291Z,64.79
2023-03-21T11:39:39.284Z,65.09
2023-03-21T11:40:39.258Z,64.28
2023-03-21T11:41:39.253Z,63.84
2023-03-21T11:42:39.236Z,63.46
2023-03-21T11:43:39.227Z,65.30
2023-03-21T11:44:39.216Z,63.06
2023-03-21T11:45:39.422Z,64.15
2023-03-21T11:46:39.238Z,64.55
2023-03-21T11:47:39.200Z,63.02
2023-03-21T11:48:39.158Z,63.77
2023-03-21T11:49:39.142Z,64.58
2023-03-21T11:50:39.140Z,64.86
2023-03-21T11:51:39.129Z,64.15
2023-03-21T11:52:39.145Z,63.84
2023-03-21T11:53:39.123Z,62.21
2023-03-21T11:54:39.088Z,62.82
2023-03-21T11:55:39.490Z,62.32
2023-03-21T11:56:39.055Z,63.64
2023-03-21T11:57:39.053Z,64.65
2023-03-21T11:58:39.069Z,63.91
2023-03-21T11:59:39.017Z,62.82
2023-03-21T12:00:39.024Z,62.62
2023-03-21T12:01:39.001Z,63.81
2023-03-21T12:02:39.047Z,66.28
2023-03-21T12:03:47.545Z,64.12
2023-03-21T12:04:40.169Z,64.93
2023-03-21T12:05:39.218Z,63.51
2023-03-21T12:06:38.928Z,63.43
2023-03-21T12:07:38.918Z,63.43
2023-03-21T12:08:38.902Z,64.76
2023-03-21T12:09:38.913Z,63.02
2023-03-21T12:10:38.893Z,63.43
2023-03-21T12:11:38.874Z,63.23
2023-03-21T12:12:39.665Z,63.30
2023-03-21T12:13:38.837Z,62.70
2023-03-21T12:14:38.840Z,62.39
2023-03-21T12:15:39.231Z,62.49
2023-03-21T12:16:38.862Z,61.65
2023-03-21T12:17:38.792Z,60.86
2023-03-21T12:18:38.778Z,61.78
2023-03-21T12:19:38.770Z,63.68
2023-03-21T12:20:38.757Z,59.52
2023-03-21T12:21:38.745Z,60.76
2023-03-21T12:22:38.731Z,60.25
2023-03-21T12:23:38.779Z,63.28
2023-03-21T12:24:38.702Z,60.63
2023-03-21T12:25:39.322Z,60.43
2023-03-21T12:26:38.674Z,61.34
2023-03-21T12:27:38.692Z,61.34
2023-03-21T12:28:38.653Z,62.23
2023-03-21T12:29:38.645Z,64.13
2023-03-21T12:30:38.626Z,62.20
2023-03-21T12:31:38.703Z,63.11
2023-03-21T12:32:38.602Z,60.98
2023-03-21T12:33:38.589Z,61.18
2023-03-21T12:34:38.586Z,60.78
2023-03-21T12:35:39.025Z,60.37
2023-03-21T12:36:38.541Z,60.17
2023-03-21T12:37:38.585Z,60.17
2023-03-21T12:38:38.521Z,62.10
2023-03-21T12:39:38.510Z,63.39
2023-03-21T12:40:38.529Z,59.74
2023-03-21T12:41:38.608Z,62.45
2023-03-21T12:42:38.491Z,63.35
2023-03-21T12:43:38.459Z,59.81
2023-03-21T12:44:38.459Z,57.98
2023-03-21T12:45:46.504Z,59.20
2023-03-21T12:46:39.536Z,57.28
2023-03-21T12:47:38.423Z,57.30
2023-03-21T12:48:38.446Z,58.72
2023-03-21T12:49:38.394Z,59.03
2023-03-21T12:50:38.372Z,57.81
2023-03-21T12:51:38.374Z,59.94
2023-03-21T12:52:38.340Z,57.60
2023-03-21T12:53:38.331Z,57.23
2023-03-21T12:54:38.320Z,57.86